createdAt,value
2019-04-21T00:00:39.709Z,17.30
2019-04-21T00:03:18.165Z,18.80
2019-04-21T00:06:06.124Z,25.67
2019-04-21T00:11:09.742Z,19.67
2019-04-21T00:13:32.858Z,18.83
2019-04-21T00:15:53.888Z,17.87
2019-04-21T00:18:44.662Z,21.60
2019-04-21T00:21:18.315Z,17.73
2019-04-21T00:23:56.053Z,19.80
2019-04-21T00:26:27.869Z,16.27
2019-04-21T00:29:09.155Z,18.10
2019-04-21T00:31:28.546Z,18.33
2019-04-21T00:33:48.498Z,15.70
2019-04-21T00:36:25.261Z,15.30
2019-04-21T00:39:20.684Z,15.50
2019-04-21T00:41:43.892Z,19.67
2019-04-21T00:44:04.536Z,18.03
2019-04-21T00:46:41.273Z,17.83
2019-04-21T00:49:10.552Z,20.50
2019-04-21T00:52:03.797Z,19.83
2019-04-21T00:54:41.759Z,19.40
2019-04-21T00:57:13.029Z,20.53
2019-04-21T00:59:42.898Z,22.90
2019-04-21T01:02:05.623Z,20.90
2019-04-21T01:04:47.518Z,21.57
2019-04-21T01:07:12.516Z,18.43
2019-04-21T01:09:35.493Z,23.50
2019-04-21T01:12:15.575Z,19.17
2019-04-21T01:14:51.953Z,17.67
2019-04-21T01:17:19.211Z,18.03
2019-04-21T01:19:48.086Z,21.27
2019-04-21T01:21:58.330Z,19.30
2019-04-21T01:24:33.013Z,19.40
2019-04-21T01:27:10.025Z,18.37
2019-04-21T01:29:53.987Z,20.20
2019-04-21T01:32:25.415Z,16.73
2019-04-21T01:34:51.361Z,20.57
2019-04-21T01:37:32.944Z,19.27
2019-04-21T01:40:06.529Z,19.90
2019-04-21T01:42:33.411Z,21.23
2019-04-21T01:45:02.330Z,20.10
2019-04-21T01:47:31.009Z,22.40
2019-04-21T01:49:55.552Z,21.10
2019-04-21T01:52:43.953Z,23.10
2019-04-21T01:55:14.048Z,21.30
2019-04-21T01:57:42.579Z,21.37
2019-04-21T02:00:13.396Z,19.40
2019-04-21T02:02:59.886Z,23.47
2019-04-21T02:05:32.679Z,21.47
2019-04-21T02:07:54.689Z,20.93
2019-04-21T02:10:44.431Z,24.43
2019-04-21T02:13:03.448Z,23.03
2019-04-21T02:18:06.091Z,21.17
2019-04-21T02:20:34.512Z,23.67
2019-04-21T02:25:47.154Z,24.87
2019-04-21T02:28:20.989Z,24.93
2019-04-21T02:33:36.130Z,23.27
2019-04-21T02:36:15.443Z,25.77
2019-04-21T02:41:01.458Z,22.27
2019-04-21T02:46:05.437Z,26.17
2019-04-21T02:48:39.307Z,24.27
2019-04-21T02:51:17.531Z,22.07
2019-04-21T02:56:20.451Z,25.90
2019-04-21T02:58:52.334Z,30.33
2019-04-21T03:01:40.394Z,24.23
2019-04-21T03:04:24.502Z,20.30
2019-04-21T03:07:03.449Z,25.87
2019-04-21T03:09:37.059Z,24.50
2019-04-21T03:12:05.194Z,21.87
2019-04-21T03:17:05.630Z,26.30
2019-04-21T03:22:14.528Z,26.23
2019-04-21T03:24:58.873Z,27.63
2019-04-21T03:27:17.283Z,23.90
2019-04-21T03:35:15.241Z,26.47
2019-04-21T03:37:19.055Z,24.00
2019-04-21T03:42:25.597Z,24.63
2019-04-21T03:44:45.307Z,22.10
2019-04-21T03:47:24.929Z,23.33
2019-04-21T03:49:54.567Z,27.73
2019-04-21T04:00:50.724Z,21.43
2019-04-21T04:11:12.371Z,28.43
2019-04-21T04:13:49.414Z,30.90
2019-04-21T04:16:10.279Z,25.77
2019-04-21T04:26:16.991Z,21.53
2019-04-21T04:28:54.282Z,25.83
2019-04-21T04:31:25.983Z,24.60
2019-04-21T04:33:55.514Z,25.73
2019-04-21T04:36:30.424Z,25.00
2019-04-21T04:39:26.331Z,24.30
2019-04-21T04:42:06.010Z,25.93
2019-04-21T04:44:49.966Z,24.17
2019-04-21T04:52:31.399Z,27.60
2019-04-21T04:54:49.380Z,25.07
2019-04-21T05:02:28.096Z,30.57
2019-04-21T05:07:16.888Z,25.20
2019-04-21T05:09:46.959Z,23.03
2019-04-21T05:12:13.606Z,25.77
2019-04-21T05:14:46.645Z,23.77
2019-04-21T05:17:24.914Z,23.83
2019-04-21T05:20:05.519Z,22.90
2019-04-21T05:22:22.180Z,27.00
2019-04-21T05:24:41.908Z,29.43
2019-04-21T05:27:13.863Z,27.07
2019-04-21T05:29:59.923Z,26.13
2019-04-21T05:32:41.744Z,27.83
2019-04-21T05:35:26.680Z,25.63
2019-04-21T05:38:03.015Z,27.60
2019-04-21T05:40:29.684Z,31.27
2019-04-21T05:43:03.364Z,27.40
2019-04-21T05:45:52.015Z,27.30
2019-04-21T05:48:17.264Z,25.17
2019-04-21T05:50:39.672Z,26.30
2019-04-21T05:53:17.663Z,26.20
2019-04-21T05:58:16.405Z,24.30
2019-04-21T06:03:41.102Z,28.17
2019-04-21T06:06:08.675Z,26.23
2019-04-21T06:08:31.899Z,26.53
2019-04-21T06:11:10.344Z,27.57
2019-04-21T06:13:46.458Z,25.93
2019-04-21T06:16:10.639Z,26.77
2019-04-21T06:21:11.185Z,27.85
2019-04-21T06:23:47.803Z,28.38
2019-04-21T06:26:28.012Z,26.75
2019-04-21T06:28:49.088Z,27.30
2019-04-21T06:31:40.900Z,25.57
2019-04-21T06:41:32.486Z,29.50
2019-04-21T06:44:01.518Z,26.85
2019-04-21T06:46:34.910Z,25.08
2019-04-21T06:49:02.602Z,25.85
2019-04-21T06:51:30.697Z,23.92
2019-04-21T06:54:13.043Z,24.37
2019-04-21T06:56:42.424Z,23.73
2019-04-21T06:59:06.743Z,21.85
2019-04-21T07:01:45.618Z,21.37
2019-04-21T07:04:20.576Z,21.15
2019-04-21T07:11:44.545Z,22.10
2019-04-21T07:16:50.979Z,20.43
2019-04-21T07:21:52.531Z,20.30
2019-04-21T07:24:26.293Z,18.20
2019-04-21T07:26:57.095Z,20.10
2019-04-21T07:29:28.566Z,19.12
2019-04-21T07:32:04.380Z,18.23
2019-04-21T07:34:33.362Z,18.37
2019-04-21T07:37:01.001Z,17.80
2019-04-21T07:39:30.307Z,19.20
2019-04-21T07:41:59.359Z,17.23
2019-04-21T07:44:28.899Z,18.85
2019-04-21T07:46:57.314Z,18.50
2019-04-21T07:49:46.258Z,17.27
2019-04-21T07:52:28.269Z,17.57
2019-04-21T07:55:15.358Z,14.87
2019-04-21T07:57:27.735Z,14.87
2019-04-21T08:00:16.572Z,15.53
2019-04-21T08:05:13.085Z,12.97
2019-04-21T08:07:47.804Z,13.77
2019-04-21T08:10:06.139Z,18.23
2019-04-21T08:12:37.502Z,12.87
2019-04-21T08:15:15.867Z,16.53
2019-04-21T08:17:41.577Z,16.03
2019-04-21T08:20:15.597Z,19.67
2019-04-21T08:22:49.404Z,17.00
2019-04-21T08:25:14.891Z,17.20
2019-04-21T08:30:19.985Z,19.00
2019-04-21T08:33:01.057Z,17.23
2019-04-21T08:37:59.212Z,17.20
2019-04-21T08:40:33.090Z,15.93
2019-04-21T08:42:58.195Z,18.13
2019-04-21T08:45:35.607Z,19.30
2019-04-21T08:48:04.326Z,17.30
2019-04-21T08:50:30.883Z,17.53
2019-04-21T08:53:07.954Z,18.50
2019-04-21T08:55:54.300Z,17.97
2019-04-21T08:58:25.694Z,18.23
2019-04-21T09:00:55.057Z,15.53
2019-04-21T09:03:43.259Z,17.17
2019-04-21T09:06:18.967Z,18.17
2019-04-21T09:08:39.338Z,17.97
2019-04-21T09:11:11.456Z,15.47
2019-04-21T09:13:40.948Z,14.50
2019-04-21T09:16:17.179Z,21.23
2019-04-21T09:18:41.991Z,18.37
2019-04-21T09:21:22.718Z,14.93
2019-04-21T09:23:52.247Z,15.40
2019-04-21T09:26:26.330Z,20.43
2019-04-21T09:28:48.190Z,17.07
2019-04-21T09:31:07.168Z,16.40
2019-04-21T09:33:44.759Z,18.23
2019-04-21T09:36:13.076Z,17.83
2019-04-21T09:38:43.522Z,17.37
2019-04-21T09:41:16.077Z,16.50
2019-04-21T09:43:48.415Z,19.63
2019-04-21T09:46:14.433Z,18.33
2019-04-21T09:48:55.053Z,16.60
2019-04-21T09:51:15.867Z,20.93
2019-04-21T09:53:54.579Z,22.37
2019-04-21T09:56:28.535Z,17.30
2019-04-21T09:58:53.261Z,19.47
2019-04-21T10:01:28.664Z,19.37
2019-04-21T10:03:57.188Z,14.87
2019-04-21T10:06:24.226Z,17.53
2019-04-21T10:08:58.331Z,15.83
2019-04-21T10:11:26.737Z,16.43
2019-04-21T10:13:56.540Z,15.83
2019-04-21T10:16:38.588Z,12.53
2019-04-21T10:19:08.888Z,12.97
2019-04-21T10:21:40.175Z,15.57
2019-04-21T10:24:10.490Z,13.07
2019-04-21T10:26:40.964Z,13.37
2019-04-21T10:29:19.374Z,13.10
2019-04-21T10:31:42.841Z,13.00
2019-04-21T10:34:13.521Z,14.10
2019-04-21T10:36:43.404Z,14.23
2019-04-21T10:39:13.792Z,12.70
2019-04-21T10:41:43.583Z,16.12
2019-04-21T10:44:13.614Z,12.80
2019-04-21T10:46:45.697Z,15.18
2019-04-21T10:49:14.833Z,11.45
2019-04-21T10:51:44.644Z,13.15
2019-04-21T10:54:15.740Z,10.70
2019-04-21T10:56:46.102Z,12.55
2019-04-21T10:59:18.282Z,14.85
2019-04-21T11:01:49.144Z,11.40
2019-04-21T11:04:27.210Z,13.85
2019-04-21T11:06:59.444Z,11.95
2019-04-21T11:09:24.366Z,12.70
2019-04-21T11:11:55.754Z,12.68
2019-04-21T11:14:25.494Z,15.55
2019-04-21T11:16:56.562Z,12.87
2019-04-21T11:19:26.469Z,10.70
2019-04-21T11:21:56.895Z,10.63
2019-04-21T11:24:27.145Z,11.40
2019-04-21T11:26:58.176Z,12.37
2019-04-21T11:29:28.623Z,12.40
2019-04-21T11:31:58.905Z,11.63
2019-04-21T11:34:29.316Z,12.43
2019-04-21T11:36:59.236Z,13.33
2019-04-21T11:39:37.601Z,11.13
2019-04-21T11:42:03.764Z,9.93
2019-04-21T11:44:33.400Z,9.93
2019-04-21T11:47:04.710Z,8.73
2019-04-21T11:49:34.856Z,10.90
2019-04-21T11:52:04.886Z,12.07
2019-04-21T11:54:35.046Z,11.43
2019-04-21T11:57:12.412Z,13.10
2019-04-21T11:59:37.513Z,11.10
2019-04-21T12:02:07.904Z,8.43
2019-04-21T12:04:39.175Z,23.70
2019-04-21T12:07:09.205Z,8.47
2019-04-21T12:09:39.584Z,10.80
2019-04-21T12:12:09.738Z,8.67
2019-04-21T12:14:39.755Z,9.07
2019-04-21T12:17:10.036Z,11.50
2019-04-21T12:19:40.878Z,9.77
2019-04-21T12:22:18.185Z,10.67
2019-04-21T12:24:42.989Z,11.23
2019-04-21T12:27:14.049Z,9.37
2019-04-21T12:29:44.102Z,10.87
2019-04-21T12:32:33.854Z,12.03
2019-04-21T12:35:06.002Z,9.77
2019-04-21T12:37:37.075Z,9.93
2019-04-21T12:40:08.501Z,11.43
2019-04-21T12:42:39.286Z,9.83
2019-04-21T12:45:10.419Z,11.40
2019-04-21T12:47:40.064Z,12.40
2019-04-21T12:50:11.054Z,10.53
2019-04-21T12:52:41.915Z,12.20
2019-04-21T12:55:13.433Z,8.50
2019-04-21T12:57:43.589Z,8.90
2019-04-21T13:00:15.438Z,12.90
2019-04-21T13:02:45.602Z,8.90
2019-04-21T13:05:15.977Z,7.57
2019-04-21T13:07:45.750Z,8.77
2019-04-21T13:10:16.238Z,8.73
2019-04-21T13:12:45.956Z,9.47
2019-04-21T13:15:17.856Z,9.17
2019-04-21T13:17:47.723Z,9.77
2019-04-21T13:20:17.583Z,10.53
2019-04-21T13:22:48.182Z,12.90
2019-04-21T13:25:18.192Z,8.57
2019-04-21T13:27:49.204Z,9.47
2019-04-21T13:30:20.137Z,10.63
2019-04-21T13:32:51.374Z,10.20
2019-04-21T13:35:21.395Z,9.10
2019-04-21T13:37:52.287Z,8.23
2019-04-21T13:40:46.126Z,8.23
2019-04-21T13:43:01.728Z,9.17
2019-04-21T13:45:30.012Z,7.93
2019-04-21T13:48:00.973Z,9.53
2019-04-21T13:50:31.155Z,11.83
2019-04-21T13:53:00.815Z,9.87
2019-04-21T13:55:31.769Z,8.50
2019-04-21T13:58:02.095Z,9.43
2019-04-21T14:00:31.923Z,8.70
2019-04-21T14:03:02.941Z,9.93
2019-04-21T14:05:32.782Z,11.30
2019-04-21T14:08:03.153Z,11.17
2019-04-21T14:10:33.521Z,10.20
2019-04-21T14:13:04.547Z,9.00
2019-04-21T14:15:35.794Z,9.43
2019-04-21T14:18:06.858Z,10.70
2019-04-21T14:20:37.443Z,9.13
2019-04-21T14:23:15.843Z,7.80
2019-04-21T14:25:39.574Z,10.23
2019-04-21T14:28:10.287Z,9.57
2019-04-21T14:30:40.758Z,10.97
2019-04-21T14:33:11.980Z,10.10
2019-04-21T14:35:42.968Z,9.37
2019-04-21T14:38:14.291Z,10.57
2019-04-21T14:40:44.229Z,9.20
2019-04-21T14:43:14.254Z,9.00
2019-04-21T14:45:55.235Z,12.10
2019-04-21T14:48:27.344Z,9.43
2019-04-21T14:51:06.577Z,7.70
2019-04-21T14:53:38.203Z,8.07
2019-04-21T14:56:09.104Z,10.00
2019-04-21T14:58:39.258Z,10.20
2019-04-21T15:01:10.400Z,8.40
2019-04-21T15:03:41.589Z,8.60
2019-04-21T15:06:11.949Z,9.17
2019-04-21T15:08:42.806Z,10.00
2019-04-21T15:11:13.962Z,8.40
2019-04-21T15:13:44.010Z,7.00
2019-04-21T15:16:15.073Z,9.27
2019-04-21T15:18:44.854Z,12.20
2019-04-21T15:21:15.340Z,7.63
2019-04-21T15:23:46.523Z,9.43
2019-04-21T15:26:17.940Z,7.10
2019-04-21T15:28:48.869Z,9.30
2019-04-21T15:31:26.704Z,7.17
2019-04-21T15:33:50.381Z,9.10
2019-04-21T15:36:20.958Z,9.33
2019-04-21T15:38:51.979Z,7.73
2019-04-21T15:41:22.663Z,7.93
2019-04-21T15:43:52.358Z,9.17
2019-04-21T15:46:22.609Z,8.33
2019-04-21T15:48:53.003Z,8.10
2019-04-21T15:51:23.959Z,9.83
2019-04-21T15:53:55.534Z,9.73
2019-04-21T15:56:27.009Z,12.57
2019-04-21T15:59:01.143Z,9.00
2019-04-21T16:01:32.593Z,10.67
2019-04-21T16:04:02.868Z,7.53
2019-04-21T16:06:35.236Z,7.80
2019-04-21T16:09:14.218Z,6.90
2019-04-21T16:11:40.211Z,7.83
2019-04-21T16:14:10.243Z,8.47
2019-04-21T16:16:41.212Z,8.77
2019-04-21T16:19:12.287Z,7.27
2019-04-21T16:21:44.484Z,8.47
2019-04-21T16:24:14.234Z,11.07
2019-04-21T16:26:44.571Z,8.57
2019-04-21T16:29:15.445Z,10.33
2019-04-21T16:31:45.113Z,10.23
2019-04-21T16:34:15.775Z,8.53
2019-04-21T16:36:45.735Z,12.60
2019-04-21T16:39:15.672Z,9.20
2019-04-21T16:41:46.525Z,9.97
2019-04-21T16:44:16.872Z,9.60
2019-04-21T16:46:51.648Z,6.53
2019-04-21T16:49:22.107Z,8.63
2019-04-21T16:51:53.972Z,6.37
2019-04-21T16:54:26.231Z,7.60
2019-04-21T16:56:57.689Z,7.63
2019-04-21T16:59:30.521Z,6.57
2019-04-21T17:02:00.661Z,7.67
2019-04-21T17:04:30.747Z,7.00
2019-04-21T17:07:00.962Z,10.17
2019-04-21T17:09:30.704Z,7.97
2019-04-21T17:12:05.540Z,6.57
2019-04-21T17:14:49.539Z,6.43
2019-04-21T17:17:25.199Z,9.27
2019-04-21T17:19:41.856Z,9.37
2019-04-21T17:22:07.868Z,8.53
2019-04-21T17:24:38.000Z,12.10
2019-04-21T17:27:09.091Z,8.10
2019-04-21T17:29:39.099Z,7.33
2019-04-21T17:32:09.772Z,9.63
2019-04-21T17:34:40.941Z,7.33
2019-04-21T17:37:11.049Z,7.20
2019-04-21T17:39:40.891Z,12.20
2019-04-21T17:42:18.139Z,9.13
2019-04-21T17:44:43.314Z,8.20
2019-04-21T17:47:25.610Z,7.90
2019-04-21T17:49:46.791Z,10.37
2019-04-21T17:52:23.136Z,6.13
2019-04-21T17:55:11.473Z,9.70
2019-04-21T17:57:54.552Z,7.80
2019-04-21T18:00:52.066Z,8.30
2019-04-21T18:02:58.885Z,8.83
2019-04-21T18:05:31.923Z,9.53
2019-04-21T18:08:00.020Z,8.87
2019-04-21T18:10:34.840Z,10.30
2019-04-21T18:12:59.234Z,11.33
2019-04-21T18:15:38.288Z,9.27
2019-04-21T18:17:54.488Z,9.03
2019-04-21T18:20:26.032Z,8.57
2019-04-21T18:23:00.926Z,9.87
2019-04-21T18:25:46.473Z,8.33
2019-04-21T18:28:04.931Z,10.67
2019-04-21T18:30:48.900Z,10.53
2019-04-21T18:33:26.868Z,11.20
2019-04-21T18:35:58.081Z,10.67
2019-04-21T18:38:56.259Z,11.10
2019-04-21T18:41:05.681Z,10.47
2019-04-21T18:44:15.190Z,9.73
2019-04-21T18:46:39.675Z,10.47
2019-04-21T18:49:06.477Z,10.43
2019-04-21T18:51:57.287Z,11.53
2019-04-21T18:54:37.716Z,11.23
2019-04-21T18:56:57.678Z,11.90
2019-04-21T18:59:31.101Z,15.43
2019-04-21T19:02:02.397Z,15.40
2019-04-21T19:04:31.219Z,15.03
2019-04-21T19:07:13.136Z,13.70
2019-04-21T19:12:20.588Z,15.37
2019-04-21T19:14:45.730Z,12.93
2019-04-21T19:17:48.573Z,14.30
2019-04-21T19:22:31.195Z,14.07
2019-04-21T19:24:59.496Z,15.77
2019-04-21T19:27:29.158Z,15.70
2019-04-21T19:30:05.677Z,16.03
2019-04-21T19:32:28.931Z,13.73
2019-04-21T19:34:47.364Z,14.93
2019-04-21T19:37:20.129Z,13.90
2019-04-21T19:40:00.439Z,17.03
2019-04-21T19:42:30.406Z,12.63
2019-04-21T19:45:05.283Z,16.83
2019-04-21T19:47:45.088Z,17.67
2019-04-21T19:50:12.024Z,20.80
2019-04-21T19:52:36.755Z,18.87
2019-04-21T19:54:56.704Z,22.27
2019-04-21T19:57:27.342Z,18.47
2019-04-21T20:00:01.362Z,21.03
2019-04-21T20:02:30.131Z,23.80
2019-04-21T20:05:05.887Z,22.93
2019-04-21T20:07:49.792Z,26.87
2019-04-21T20:10:24.759Z,28.77
2019-04-21T20:12:49.888Z,29.10
2019-04-21T20:15:37.379Z,32.33
2019-04-21T20:17:52.979Z,30.93
2019-04-21T20:20:13.193Z,31.30
2019-04-21T20:22:46.704Z,31.23
2019-04-21T20:25:19.068Z,28.47
2019-04-21T20:27:58.306Z,29.37
2019-04-21T20:30:37.745Z,31.43
2019-04-21T20:33:27.988Z,27.47
2019-04-21T20:35:46.555Z,26.97
2019-04-21T20:38:09.754Z,30.20
2019-04-21T20:40:36.249Z,25.83
2019-04-21T20:43:16.440Z,24.67
2019-04-21T20:45:46.068Z,35.30
2019-04-21T20:48:07.222Z,30.97
2019-04-21T20:50:44.711Z,27.67
2019-04-21T20:53:24.931Z,28.60
2019-04-21T20:55:48.660Z,30.33
2019-04-21T20:58:23.501Z,28.40
2019-04-21T21:01:06.980Z,31.47
2019-04-21T21:03:28.833Z,26.13
2019-04-21T21:05:53.207Z,27.87
2019-04-21T21:08:31.298Z,27.50
2019-04-21T21:10:58.750Z,27.43
2019-04-21T21:13:41.317Z,27.10
2019-04-21T21:16:16.365Z,26.17
2019-04-21T21:21:06.648Z,26.77
2019-04-21T21:23:42.798Z,30.33
2019-04-21T21:26:18.373Z,27.60
2019-04-21T21:28:42.008Z,27.73
2019-04-21T21:31:12.991Z,28.43
2019-04-21T21:33:57.461Z,27.00
2019-04-21T21:36:25.992Z,24.33
2019-04-21T21:38:52.159Z,26.93
2019-04-21T21:41:13.785Z,26.53
2019-04-21T21:43:34.906Z,26.10
2019-04-21T21:46:27.137Z,26.57
2019-04-21T21:48:51.418Z,27.13
2019-04-21T21:51:18.098Z,30.47
2019-04-21T21:53:42.685Z,29.40
2019-04-21T21:56:12.058Z,27.00
2019-04-21T21:58:44.266Z,27.27
2019-04-21T22:01:15.374Z,27.53
2019-04-21T22:03:47.253Z,31.87
2019-04-21T22:06:20.497Z,28.57
2019-04-21T22:08:50.423Z,27.57
2019-04-21T22:11:20.224Z,26.07
2019-04-21T22:13:57.547Z,26.77
2019-04-21T22:16:23.370Z,26.20
2019-04-21T22:19:18.755Z,32.67
2019-04-21T22:21:41.554Z,27.77
2019-04-21T22:24:03.564Z,27.67
2019-04-21T22:26:27.720Z,24.87
2019-04-21T22:28:58.125Z,22.83
2019-04-21T22:31:32.211Z,25.67
2019-04-21T22:34:05.226Z,25.30
2019-04-21T22:36:44.849Z,25.37
2019-04-21T22:39:20.949Z,25.13
2019-04-21T22:41:41.036Z,22.73
2019-04-21T22:44:06.743Z,30.40
2019-04-21T22:46:38.219Z,24.63
2019-04-21T22:49:10.445Z,26.10
2019-04-21T22:51:43.994Z,23.50
2019-04-21T22:54:12.783Z,25.53
2019-04-21T22:56:51.987Z,24.53
2019-04-21T22:59:18.644Z,26.23
2019-04-21T23:01:48.775Z,23.73
2019-04-21T23:04:17.782Z,25.03
2019-04-21T23:06:48.814Z,30.33
2019-04-21T23:09:19.220Z,28.87
2019-04-21T23:11:51.516Z,27.20
2019-04-21T23:14:21.524Z,28.57
2019-04-21T23:16:54.223Z,27.60
2019-04-21T23:19:37.649Z,26.60
2019-04-21T23:22:14.378Z,24.40
2019-04-21T23:24:45.602Z,25.47
2019-04-21T23:27:11.665Z,26.67
2019-04-21T23:30:06.397Z,26.60
2019-04-21T23:32:17.271Z,27.33
2019-04-21T23:34:36.572Z,27.73
2019-04-21T23:37:10.623Z,26.10
2019-04-21T23:39:37.400Z,25.60
2019-04-21T23:42:06.524Z,25.37
2019-04-21T23:44:41.484Z,22.30
2019-04-21T23:47:11.772Z,26.27
2019-04-21T23:49:49.495Z,29.50
2019-04-21T23:52:13.855Z,27.20
2019-04-21T23:54:43.094Z,28.20
2019-04-21T23:57:20.828Z,25.43
2019-04-21T23:59:48.768Z,24.53
